sensor_id;sensor_type;location;lat;lon;timestamp;P1;durP1;ratioP1;P2;durP2;ratioP2
71108;SDS011;59614;51.012;-1.648;2023-07-28T00:01:59;5.88;;;2.30;;
71108;SDS011;59614;51.012;-1.648;2023-07-28T00:04:24;4.93;;;1.80;;
71108;SDS011;59614;51.012;-1.648;2023-07-28T00:06:50;3.38;;;1.85;;
71108;SDS011;59614;51.012;-1.648;2023-07-28T00:09:15;7.03;;;2.30;;
71108;SDS011;59614;51.012;-1.648;2023-07-28T00:11:41;6.00;;;1.80;;
71108;SDS011;59614;51.012;-1.648;2023-07-28T00:14:06;7.28;;;2.28;;
71108;SDS011;59614;51.012;-1.648;2023-07-28T00:16:31;6.88;;;2.20;;
71108;SDS011;59614;51.012;-1.648;2023-07-28T00:18:57;6.20;;;2.10;;
71108;SDS011;59614;51.012;-1.648;2023-07-28T00:21:22;4.78;;;2.13;;
71108;SDS011;59614;51.012;-1.648;2023-07-28T00:23:48;13.05;;;2.20;;
71108;SDS011;59614;51.012;-1.648;2023-07-28T00:26:13;6.25;;;2.22;;
71108;SDS011;59614;51.012;-1.648;2023-07-28T00:28:38;4.80;;;1.95;;
71108;SDS011;59614;51.012;-1.648;2023-07-28T00:31:04;6.47;;;2.28;;
71108;SDS011;59614;51.012;-1.648;2023-07-28T00:33:29;23.95;;;2.30;;
71108;SDS011;59614;51.012;-1.648;2023-07-28T00:35:55;8.52;;;2.20;;
71108;SDS011;59614;51.012;-1.648;2023-07-28T00:38:20;7.95;;;2.13;;
71108;SDS011;59614;51.012;-1.648;2023-07-28T00:40:45;7.65;;;2.05;;
71108;SDS011;59614;51.012;-1.648;2023-07-28T00:43:11;6.43;;;2.00;;
71108;SDS011;59614;51.012;-1.648;2023-07-28T00:45:36;8.63;;;2.15;;
71108;SDS011;59614;51.012;-1.648;2023-07-28T00:48:02;5.20;;;2.10;;
71108;SDS011;59614;51.012;-1.648;2023-07-28T00:50:29;4.25;;;2.30;;
71108;SDS011;59614;51.012;-1.648;2023-07-28T00:52:56;3.08;;;1.80;;
71108;SDS011;59614;51.012;-1.648;2023-07-28T00:55:22;4.68;;;2.08;;
71108;SDS011;59614;51.012;-1.648;2023-07-28T00:57:47;3.75;;;2.00;;
71108;SDS011;59614;51.012;-1.648;2023-07-28T01:00:13;4.35;;;1.95;;
71108;SDS011;59614;51.012;-1.648;2023-07-28T01:02:38;8.25;;;2.17;;
71108;SDS011;59614;51.012;-1.648;2023-07-28T01:05:04;4.63;;;2.10;;
71108;SDS011;59614;51.012;-1.648;2023-07-28T01:10:12;4.20;;;2.40;;
71108;SDS011;59614;51.012;-1.648;2023-07-28T01:12:41;6.13;;;2.20;;
71108;SDS011;59614;51.012;-1.648;2023-07-28T01:15:06;8.85;;;2.20;;
71108;SDS011;59614;51.012;-1.648;2023-07-28T01:17:32;4.05;;;2.10;;
71108;SDS011;59614;51.012;-1.648;2023-07-28T01:19:57;6.22;;;1.80;;
71108;SDS011;59614;51.012;-1.648;2023-07-28T01:28:09;5.10;;;1.88;;
71108;SDS011;59614;51.012;-1.648;2023-07-28T01:30:36;4.07;;;2.10;;
71108;SDS011;59614;51.012;-1.648;2023-07-28T01:33:01;5.07;;;2.00;;
71108;SDS011;59614;51.012;-1.648;2023-07-28T01:35:31;6.75;;;2.35;;
71108;SDS011;59614;51.012;-1.648;2023-07-28T01:37:57;5.68;;;2.40;;
71108;SDS011;59614;51.012;-1.648;2023-07-28T01:40:22;8.18;;;2.30;;
71108;SDS011;59614;51.012;-1.648;2023-07-28T01:42:47;4.55;;;2.10;;
71108;SDS011;59614;51.012;-1.648;2023-07-28T01:45:13;5.38;;;1.83;;
71108;SDS011;59614;51.012;-1.648;2023-07-28T01:47:38;4.97;;;2.08;;
71108;SDS011;59614;51.012;-1.648;2023-07-28T01:50:04;9.30;;;2.08;;
71108;SDS011;59614;51.012;-1.648;2023-07-28T01:52:30;2.65;;;1.70;;
71108;SDS011;59614;51.012;-1.648;2023-07-28T01:54:55;5.35;;;1.88;;
71108;SDS011;59614;51.012;-1.648;2023-07-28T01:57:21;2.35;;;1.73;;
71108;SDS011;59614;51.012;-1.648;2023-07-28T01:59:46;3.88;;;1.70;;
71108;SDS011;59614;51.012;-1.648;2023-07-28T02:02:12;6.22;;;1.75;;
71108;SDS011;59614;51.012;-1.648;2023-07-28T02:04:37;3.50;;;1.70;;
71108;SDS011;59614;51.012;-1.648;2023-07-28T02:07:03;6.07;;;1.77;;
71108;SDS011;59614;51.012;-1.648;2023-07-28T02:09:28;4.07;;;1.55;;
71108;SDS011;59614;51.012;-1.648;2023-07-28T02:11:54;3.60;;;1.63;;
71108;SDS011;59614;51.012;-1.648;2023-07-28T02:14:19;5.88;;;1.67;;
71108;SDS011;59614;51.012;-1.648;2023-07-28T02:16:44;1.92;;;1.50;;
71108;SDS011;59614;51.012;-1.648;2023-07-28T02:19:10;5.28;;;1.50;;
71108;SDS011;59614;51.012;-1.648;2023-07-28T02:21:35;5.20;;;1.63;;
71108;SDS011;59614;51.012;-1.648;2023-07-28T02:24:01;3.13;;;1.40;;
71108;SDS011;59614;51.012;-1.648;2023-07-28T02:26:26;5.28;;;1.45;;
71108;SDS011;59614;51.012;-1.648;2023-07-28T02:28:51;6.30;;;1.35;;
71108;SDS011;59614;51.012;-1.648;2023-07-28T02:31:17;5.32;;;1.40;;
71108;SDS011;59614;51.012;-1.648;2023-07-28T02:33:42;4.85;;;1.60;;
71108;SDS011;59614;51.012;-1.648;2023-07-28T02:36:08;2.92;;;1.30;;
71108;SDS011;59614;51.012;-1.648;2023-07-28T02:38:33;2.60;;;1.13;;
71108;SDS011;59614;51.012;-1.648;2023-07-28T02:40:59;2.80;;;1.15;;
71108;SDS011;59614;51.012;-1.648;2023-07-28T02:43:24;1.60;;;0.93;;
71108;SDS011;59614;51.012;-1.648;2023-07-28T02:45:56;3.55;;;0.88;;
71108;SDS011;59614;51.012;-1.648;2023-07-28T02:48:22;0.90;;;0.85;;
71108;SDS011;59614;51.012;-1.648;2023-07-28T02:50:51;3.85;;;0.80;;
71108;SDS011;59614;51.012;-1.648;2023-07-28T02:53:17;1.35;;;0.52;;
71108;SDS011;59614;51.012;-1.648;2023-07-28T02:55:43;3.17;;;0.98;;
71108;SDS011;59614;51.012;-1.648;2023-07-28T02:58:10;0.73;;;0.73;;
71108;SDS011;59614;51.012;-1.648;2023-07-28T03:00:42;5.03;;;0.85;;
71108;SDS011;59614;51.012;-1.648;2023-07-28T03:03:09;0.60;;;0.47;;
71108;SDS011;59614;51.012;-1.648;2023-07-28T03:05:35;1.83;;;0.57;;
71108;SDS011;59614;51.012;-1.648;2023-07-28T03:08:02;0.73;;;0.70;;
71108;SDS011;59614;51.012;-1.648;2023-07-28T03:10:27;2.25;;;0.68;;
71108;SDS011;59614;51.012;-1.648;2023-07-28T03:12:53;2.17;;;0.85;;
71108;SDS011;59614;51.012;-1.648;2023-07-28T03:15:18;2.92;;;0.70;;
71108;SDS011;59614;51.012;-1.648;2023-07-28T03:17:47;2.78;;;0.85;;
71108;SDS011;59614;51.012;-1.648;2023-07-28T03:20:12;3.95;;;1.02;;
71108;SDS011;59614;51.012;-1.648;2023-07-28T03:22:38;4.35;;;1.17;;
71108;SDS011;59614;51.012;-1.648;2023-07-28T03:25:03;4.18;;;1.17;;
71108;SDS011;59614;51.012;-1.648;2023-07-28T03:27:29;2.65;;;0.88;;
71108;SDS011;59614;51.012;-1.648;2023-07-28T03:29:54;0.85;;;0.60;;
71108;SDS011;59614;51.012;-1.648;2023-07-28T03:32:20;3.50;;;1.10;;
71108;SDS011;59614;51.012;-1.648;2023-07-28T03:34:45;4.45;;;0.90;;
71108;SDS011;59614;51.012;-1.648;2023-07-28T03:37:10;0.88;;;0.60;;
71108;SDS011;59614;51.012;-1.648;2023-07-28T03:39:36;2.53;;;0.85;;
71108;SDS011;59614;51.012;-1.648;2023-07-28T03:42:01;1.98;;;0.68;;
71108;SDS011;59614;51.012;-1.648;2023-07-28T03:44:27;2.35;;;0.73;;
71108;SDS011;59614;51.012;-1.648;2023-07-28T03:46:52;1.65;;;0.75;;
71108;SDS011;59614;51.012;-1.648;2023-07-28T03:49:18;2.40;;;0.50;;
71108;SDS011;59614;51.012;-1.648;2023-07-28T03:51:43;1.00;;;0.63;;
71108;SDS011;59614;51.012;-1.648;2023-07-28T03:54:08;2.58;;;0.90;;
71108;SDS011;59614;51.012;-1.648;2023-07-28T03:56:34;1.75;;;0.70;;
71108;SDS011;59614;51.012;-1.648;2023-07-28T03:58:59;0.95;;;0.60;;
71108;SDS011;59614;51.012;-1.648;2023-07-28T04:01:25;0.73;;;0.70;;
71108;SDS011;59614;51.012;-1.648;2023-07-28T04:03:50;2.63;;;1.00;;
71108;SDS011;59614;51.012;-1.648;2023-07-28T04:06:16;1.75;;;0.88;;
71108;SDS011;59614;51.012;-1.648;2023-07-28T04:08:41;2.08;;;0.80;;
71108;SDS011;59614;51.012;-1.648;2023-07-28T04:11:07;2.95;;;0.65;;
71108;SDS011;59614;51.012;-1.648;2023-07-28T04:13:35;1.92;;;0.55;;
71108;SDS011;59614;51.012;-1.648;2023-07-28T04:16:01;3.85;;;0.73;;
71108;SDS011;59614;51.012;-1.648;2023-07-28T04:18:26;2.10;;;0.98;;
71108;SDS011;59614;51.012;-1.648;2023-07-28T04:20:52;1.92;;;0.75;;
71108;SDS011;59614;51.012;-1.648;2023-07-28T04:23:18;2.58;;;0.85;;
71108;SDS011;59614;51.012;-1.648;2023-07-28T04:25:44;2.85;;;0.70;;
71108;SDS011;59614;51.012;-1.648;2023-07-28T04:28:09;3.08;;;1.20;;
71108;SDS011;59614;51.012;-1.648;2023-07-28T04:30:35;1.45;;;0.70;;
71108;SDS011;59614;51.012;-1.648;2023-07-28T04:33:00;2.92;;;0.88;;
71108;SDS011;59614;51.012;-1.648;2023-07-28T04:35:26;6.05;;;0.90;;
71108;SDS011;59614;51.012;-1.648;2023-07-28T04:37:51;3.55;;;0.82;;
71108;SDS011;59614;51.012;-1.648;2023-07-28T04:40:19;2.40;;;0.93;;
71108;SDS011;59614;51.012;-1.648;2023-07-28T04:42:44;4.57;;;1.15;;
71108;SDS011;59614;51.012;-1.648;2023-07-28T04:45:10;1.25;;;0.55;;
71108;SDS011;59614;51.012;-1.648;2023-07-28T04:47:35;5.95;;;1.52;;
71108;SDS011;59614;51.012;-1.648;2023-07-28T04:50:01;2.63;;;0.60;;
71108;SDS011;59614;51.012;-1.648;2023-07-28T04:52:26;3.38;;;0.88;;
71108;SDS011;59614;51.012;-1.648;2023-07-28T04:54:51;1.00;;;0.82;;
71108;SDS011;59614;51.012;-1.648;2023-07-28T04:57:17;3.15;;;0.82;;
71108;SDS011;59614;51.012;-1.648;2023-07-28T04:59:44;6.40;;;0.65;;
71108;SDS011;59614;51.012;-1.648;2023-07-28T05:02:09;2.78;;;0.80;;
71108;SDS011;59614;51.012;-1.648;2023-07-28T05:04:35;2.60;;;0.70;;
71108;SDS011;59614;51.012;-1.648;2023-07-28T05:07:01;1.77;;;0.65;;
71108;SDS011;59614;51.012;-1.648;2023-07-28T05:09:28;1.80;;;0.93;;
71108;SDS011;59614;51.012;-1.648;2023-07-28T05:11:54;2.03;;;1.17;;
71108;SDS011;59614;51.012;-1.648;2023-07-28T05:14:19;1.42;;;0.80;;
71108;SDS011;59614;51.012;-1.648;2023-07-28T05:16:45;1.00;;;0.50;;
71108;SDS011;59614;51.012;-1.648;2023-07-28T05:19:11;4.45;;;0.85;;
71108;SDS011;59614;51.012;-1.648;2023-07-28T05:21:37;0.77;;;0.70;;
71108;SDS011;59614;51.012;-1.648;2023-07-28T05:24:03;1.88;;;1.05;;
71108;SDS011;59614;51.012;-1.648;2023-07-28T05:26:28;0.50;;;0.50;;
71108;SDS011;59614;51.012;-1.648;2023-07-28T05:28:54;0.80;;;0.60;;
71108;SDS011;59614;51.012;-1.648;2023-07-28T05:31:19;4.65;;;1.23;;
71108;SDS011;59614;51.012;-1.648;2023-07-28T05:33:45;4.55;;;1.10;;
71108;SDS011;59614;51.012;-1.648;2023-07-28T05:36:10;3.45;;;0.70;;
71108;SDS011;59614;51.012;-1.648;2023-07-28T05:38:35;1.83;;;0.90;;
71108;SDS011;59614;51.012;-1.648;2023-07-28T05:41:01;3.10;;;1.20;;
71108;SDS011;59614;51.012;-1.648;2023-07-28T05:43:28;4.20;;;1.33;;
71108;SDS011;59614;51.012;-1.648;2023-07-28T05:46:00;3.22;;;1.10;;
71108;SDS011;59614;51.012;-1.648;2023-07-28T05:48:26;5.72;;;1.55;;
71108;SDS011;59614;51.012;-1.648;2023-07-28T05:50:51;0.80;;;0.80;;
71108;SDS011;59614;51.012;-1.648;2023-07-28T05:53:18;2.55;;;1.10;;
71108;SDS011;59614;51.012;-1.648;2023-07-28T05:55:47;4.95;;;1.20;;
71108;SDS011;59614;51.012;-1.648;2023-07-28T05:58:13;5.00;;;1.25;;
71108;SDS011;59614;51.012;-1.648;2023-07-28T06:00:39;4.90;;;1.20;;
71108;SDS011;59614;51.012;-1.648;2023-07-28T06:03:06;1.63;;;1.00;;
71108;SDS011;59614;51.012;-1.648;2023-07-28T06:05:32;3.90;;;1.13;;
71108;SDS011;59614;51.012;-1.648;2023-07-28T06:07:57;1.92;;;0.98;;
71108;SDS011;59614;51.012;-1.648;2023-07-28T06:10:23;1.77;;;1.00;;
71108;SDS011;59614;51.012;-1.648;2023-07-28T06:12:48;1.25;;;0.75;;
71108;SDS011;59614;51.012;-1.648;2023-07-28T06:15:13;4.03;;;0.93;;
71108;SDS011;59614;51.012;-1.648;2023-07-28T06:17:39;2.78;;;0.68;;
71108;SDS011;59614;51.012;-1.648;2023-07-28T06:20:04;5.55;;;1.33;;
71108;SDS011;59614;51.012;-1.648;2023-07-28T06:22:31;2.60;;;0.95;;
71108;SDS011;59614;51.012;-1.648;2023-07-28T06:24:56;1.88;;;0.90;;
71108;SDS011;59614;51.012;-1.648;2023-07-28T06:27:22;2.70;;;1.00;;
71108;SDS011;59614;51.012;-1.648;2023-07-28T06:29:47;1.75;;;1.17;;
71108;SDS011;59614;51.012;-1.648;2023-07-28T06:32:12;3.97;;;1.08;;
71108;SDS011;59614;51.012;-1.648;2023-07-28T06:34:38;0.73;;;0.73;;
71108;SDS011;59614;51.012;-1.648;2023-07-28T06:37:03;0.90;;;0.80;;
71108;SDS011;59614;51.012;-1.648;2023-07-28T06:39:29;1.08;;;1.02;;
71108;SDS011;59614;51.012;-1.648;2023-07-28T06:41:55;1.48;;;1.10;;
71108;SDS011;59614;51.012;-1.648;2023-07-28T06:44:20;4.57;;;1.85;;
71108;SDS011;59614;51.012;-1.648;2023-07-28T06:46:46;3.53;;;1.20;;
71108;SDS011;59614;51.012;-1.648;2023-07-28T06:49:12;3.63;;;1.40;;
71108;SDS011;59614;51.012;-1.648;2023-07-28T06:51:38;3.63;;;1.23;;
71108;SDS011;59614;51.012;-1.648;2023-07-28T06:54:03;2.90;;;1.30;;
71108;SDS011;59614;51.012;-1.648;2023-07-28T06:56:29;3.00;;;0.93;;
71108;SDS011;59614;51.012;-1.648;2023-07-28T06:58:54;3.88;;;1.08;;
71108;SDS011;59614;51.012;-1.648;2023-07-28T07:01:20;4.38;;;1.35;;
71108;SDS011;59614;51.012;-1.648;2023-07-28T07:03:47;1.73;;;1.00;;
71108;SDS011;59614;51.012;-1.648;2023-07-28T07:06:12;3.03;;;1.00;;
71108;SDS011;59614;51.012;-1.648;2023-07-28T07:08:37;1.73;;;0.90;;
71108;SDS011;59614;51.012;-1.648;2023-07-28T07:11:03;3.90;;;1.50;;
71108;SDS011;59614;51.012;-1.648;2023-07-28T07:13:30;1.13;;;1.02;;
71108;SDS011;59614;51.012;-1.648;2023-07-28T07:15:57;3.97;;;0.80;;
71108;SDS011;59614;51.012;-1.648;2023-07-28T07:18:22;5.88;;;1.10;;
71108;SDS011;59614;51.012;-1.648;2023-07-28T07:20:47;4.10;;;1.10;;
71108;SDS011;59614;51.012;-1.648;2023-07-28T07:23:13;0.95;;;0.68;;
71108;SDS011;59614;51.012;-1.648;2023-07-28T07:25:38;3.40;;;0.88;;
71108;SDS011;59614;51.012;-1.648;2023-07-28T07:28:04;4.50;;;1.10;;
71108;SDS011;59614;51.012;-1.648;2023-07-28T07:30:32;0.57;;;0.57;;
71108;SDS011;59614;51.012;-1.648;2023-07-28T07:32:58;2.83;;;0.90;;
71108;SDS011;59614;51.012;-1.648;2023-07-28T07:35:24;4.18;;;0.88;;
71108;SDS011;59614;51.012;-1.648;2023-07-28T07:37:49;2.38;;;0.82;;
71108;SDS011;59614;51.012;-1.648;2023-07-28T07:40:14;2.17;;;0.60;;
71108;SDS011;59614;51.012;-1.648;2023-07-28T07:42:45;4.00;;;1.10;;
71108;SDS011;59614;51.012;-1.648;2023-07-28T07:45:12;0.90;;;0.60;;
71108;SDS011;59614;51.012;-1.648;2023-07-28T07:47:39;3.40;;;0.88;;
71108;SDS011;59614;51.012;-1.648;2023-07-28T07:50:06;1.67;;;0.82;;
71108;SDS011;59614;51.012;-1.648;2023-07-28T07:52:34;7.70;;;1.00;;
71108;SDS011;59614;51.012;-1.648;2023-07-28T07:55:00;4.40;;;0.82;;
71108;SDS011;59614;51.012;-1.648;2023-07-28T07:57:25;3.92;;;1.00;;
71108;SDS011;59614;51.012;-1.648;2023-07-28T07:59:50;1.10;;;0.98;;
71108;SDS011;59614;51.012;-1.648;2023-07-28T08:02:16;6.38;;;1.20;;
71108;SDS011;59614;51.012;-1.648;2023-07-28T08:04:41;3.90;;;0.80;;
71108;SDS011;59614;51.012;-1.648;2023-07-28T08:07:07;3.45;;;0.90;;
71108;SDS011;59614;51.012;-1.648;2023-07-28T08:09:32;2.75;;;1.00;;
71108;SDS011;59614;51.012;-1.648;2023-07-28T08:11:59;0.93;;;0.80;;
71108;SDS011;59614;51.012;-1.648;2023-07-28T08:14:25;2.20;;;1.10;;
71108;SDS011;59614;51.012;-1.648;2023-07-28T08:16:50;3.97;;;1.30;;
71108;SDS011;59614;51.012;-1.648;2023-07-28T08:19:16;1.98;;;1.00;;
71108;SDS011;59614;51.012;-1.648;2023-07-28T08:21:41;4.18;;;0.90;;
71108;SDS011;59614;51.012;-1.648;2023-07-28T08:24:07;1.38;;;0.90;;
71108;SDS011;59614;51.012;-1.648;2023-07-28T08:26:33;1.40;;;1.00;;
71108;SDS011;59614;51.012;-1.648;2023-07-28T08:28:59;2.30;;;1.40;;
71108;SDS011;59614;51.012;-1.648;2023-07-28T08:31:24;1.60;;;0.80;;
71108;SDS011;59614;51.012;-1.648;2023-07-28T08:33:50;6.70;;;1.23;;
71108;SDS011;59614;51.012;-1.648;2023-07-28T08:36:15;2.95;;;1.10;;
71108;SDS011;59614;51.012;-1.648;2023-07-28T08:38:41;5.00;;;1.30;;
71108;SDS011;59614;51.012;-1.648;2023-07-28T08:41:06;6.50;;;1.10;;
71108;SDS011;59614;51.012;-1.648;2023-07-28T08:43:32;3.38;;;1.30;;
71108;SDS011;59614;51.012;-1.648;2023-07-28T08:45:57;2.00;;;1.10;;
71108;SDS011;59614;51.012;-1.648;2023-07-28T08:48:25;3.08;;;1.70;;
71108;SDS011;59614;51.012;-1.648;2023-07-28T08:50:52;1.45;;;1.30;;
71108;SDS011;59614;51.012;-1.648;2023-07-28T08:53:18;1.35;;;1.20;;
71108;SDS011;59614;51.012;-1.648;2023-07-28T08:55:43;2.90;;;1.30;;
71108;SDS011;59614;51.012;-1.648;2023-07-28T09:00:40;3.05;;;1.23;;
71108;SDS011;59614;51.012;-1.648;2023-07-28T09:03:08;5.22;;;0.90;;
71108;SDS011;59614;51.012;-1.648;2023-07-28T09:05:34;3.30;;;1.48;;
71108;SDS011;59614;51.012;-1.648;2023-07-28T09:07:59;6.18;;;1.08;;
71108;SDS011;59614;51.012;-1.648;2023-07-28T09:10:25;2.92;;;1.63;;
71108;SDS011;59614;51.012;-1.648;2023-07-28T09:12:50;4.38;;;1.48;;
71108;SDS011;59614;51.012;-1.648;2023-07-28T09:15:16;1.75;;;1.50;;
71108;SDS011;59614;51.012;-1.648;2023-07-28T09:17:43;4.15;;;1.65;;
71108;SDS011;59614;51.012;-1.648;2023-07-28T09:20:12;4.38;;;1.85;;
71108;SDS011;59614;51.012;-1.648;2023-07-28T09:22:38;3.78;;;1.90;;
71108;SDS011;59614;51.012;-1.648;2023-07-28T09:25:14;3.67;;;2.20;;
71108;SDS011;59614;51.012;-1.648;2023-07-28T09:27:40;7.72;;;2.80;;
71108;SDS011;59614;51.012;-1.648;2023-07-28T09:30:13;8.45;;;3.17;;
71108;SDS011;59614;51.012;-1.648;2023-07-28T09:32:45;6.60;;;3.17;;
71108;SDS011;59614;51.012;-1.648;2023-07-28T09:35:13;4.72;;;1.98;;
71108;SDS011;59614;51.012;-1.648;2023-07-28T09:37:51;3.13;;;1.80;;
71108;SDS011;59614;51.012;-1.648;2023-07-28T09:40:20;2.30;;;1.50;;
71108;SDS011;59614;51.012;-1.648;2023-07-28T09:42:48;3.10;;;1.60;;
71108;SDS011;59614;51.012;-1.648;2023-07-28T09:45:15;5.38;;;1.90;;
71108;SDS011;59614;51.012;-1.648;2023-07-28T09:47:43;5.05;;;1.77;;
71108;SDS011;59614;51.012;-1.648;2023-07-28T09:50:10;3.92;;;1.65;;
71108;SDS011;59614;51.012;-1.648;2023-07-28T09:52:43;4.22;;;2.05;;
71108;SDS011;59614;51.012;-1.648;2023-07-28T09:55:10;3.78;;;1.90;;
71108;SDS011;59614;51.012;-1.648;2023-07-28T09:57:39;3.58;;;1.70;;
71108;SDS011;59614;51.012;-1.648;2023-07-28T10:00:10;5.00;;;1.80;;
71108;SDS011;59614;51.012;-1.648;2023-07-28T10:02:38;1.90;;;1.58;;
71108;SDS011;59614;51.012;-1.648;2023-07-28T10:05:07;2.17;;;1.70;;
71108;SDS011;59614;51.012;-1.648;2023-07-28T10:07:38;3.40;;;1.65;;
71108;SDS011;59614;51.012;-1.648;2023-07-28T10:10:05;4.55;;;1.50;;
71108;SDS011;59614;51.012;-1.648;2023-07-28T10:12:39;2.25;;;1.70;;
71108;SDS011;59614;51.012;-1.648;2023-07-28T10:15:14;4.57;;;1.77;;
71108;SDS011;59614;51.012;-1.648;2023-07-28T10:17:49;4.38;;;1.90;;
71108;SDS011;59614;51.012;-1.648;2023-07-28T10:20:31;3.45;;;2.20;;
71108;SDS011;59614;51.012;-1.648;2023-07-28T10:23:04;5.57;;;2.00;;
71108;SDS011;59614;51.012;-1.648;2023-07-28T10:28:04;2.75;;;1.50;;
71108;SDS011;59614;51.012;-1.648;2023-07-28T10:33:02;3.17;;;1.60;;
71108;SDS011;59614;51.012;-1.648;2023-07-28T10:35:28;3.15;;;1.73;;
71108;SDS011;59614;51.012;-1.648;2023-07-28T10:37:56;2.72;;;1.75;;
71108;SDS011;59614;51.012;-1.648;2023-07-28T10:40:28;6.80;;;1.85;;
71108;SDS011;59614;51.012;-1.648;2023-07-28T10:43:02;3.72;;;1.70;;
71108;SDS011;59614;51.012;-1.648;2023-07-28T10:45:30;4.95;;;1.80;;
71108;SDS011;59614;51.012;-1.648;2023-07-28T10:47:57;2.75;;;1.60;;
71108;SDS011;59614;51.012;-1.648;2023-07-28T10:50:28;4.25;;;1.60;;
71108;SDS011;59614;51.012;-1.648;2023-07-28T10:52:55;7.05;;;1.80;;
71108;SDS011;59614;51.012;-1.648;2023-07-28T10:55:21;3.55;;;1.80;;
71108;SDS011;59614;51.012;-1.648;2023-07-28T10:57:49;2.60;;;1.70;;
71108;SDS011;59614;51.012;-1.648;2023-07-28T11:00:17;3.58;;;1.73;;
71108;SDS011;59614;51.012;-1.648;2023-07-28T11:02:44;4.20;;;2.08;;
71108;SDS011;59614;51.012;-1.648;2023-07-28T11:05:19;6.78;;;1.75;;
71108;SDS011;59614;51.012;-1.648;2023-07-28T11:07:47;3.00;;;1.77;;
71108;SDS011;59614;51.012;-1.648;2023-07-28T11:10:13;2.72;;;1.60;;
71108;SDS011;59614;51.012;-1.648;2023-07-28T11:12:42;3.23;;;1.77;;
71108;SDS011;59614;51.012;-1.648;2023-07-28T11:15:09;4.80;;;1.90;;
71108;SDS011;59614;51.012;-1.648;2023-07-28T11:17:43;2.90;;;1.70;;
71108;SDS011;59614;51.012;-1.648;2023-07-28T11:20:21;3.80;;;1.80;;
71108;SDS011;59614;51.012;-1.648;2023-07-28T11:22:58;2.90;;;1.70;;
71108;SDS011;59614;51.012;-1.648;2023-07-28T11:25:25;2.65;;;1.70;;
71108;SDS011;59614;51.012;-1.648;2023-07-28T11:27:52;7.93;;;1.98;;
71108;SDS011;59614;51.012;-1.648;2023-07-28T11:30:18;6.60;;;1.92;;
71108;SDS011;59614;51.012;-1.648;2023-07-28T11:32:45;2.55;;;1.70;;
71108;SDS011;59614;51.012;-1.648;2023-07-28T11:35:13;2.53;;;1.70;;
71108;SDS011;59614;51.012;-1.648;2023-07-28T11:37:40;6.03;;;2.05;;
71108;SDS011;59614;51.012;-1.648;2023-07-28T11:40:07;6.25;;;1.60;;
71108;SDS011;59614;51.012;-1.648;2023-07-28T11:42:46;2.28;;;1.45;;
71108;SDS011;59614;51.012;-1.648;2023-07-28T11:45:14;3.20;;;1.60;;
71108;SDS011;59614;51.012;-1.648;2023-07-28T11:50:29;2.53;;;1.75;;
71108;SDS011;59614;51.012;-1.648;2023-07-28T11:52:59;2.95;;;1.80;;
71108;SDS011;59614;51.012;-1.648;2023-07-28T11:55:25;2.58;;;1.60;;
71108;SDS011;59614;51.012;-1.648;2023-07-28T11:57:51;2.55;;;1.80;;
71108;SDS011;59614;51.012;-1.648;2023-07-28T12:00:18;2.78;;;1.70;;
71108;SDS011;59614;51.012;-1.648;2023-07-28T12:02:51;5.22;;;1.85;;
71108;SDS011;59614;51.012;-1.648;2023-07-28T12:05:26;3.80;;;1.83;;
71108;SDS011;59614;51.012;-1.648;2023-07-28T12:07:52;3.78;;;1.63;;
71108;SDS011;59614;51.012;-1.648;2023-07-28T12:10:18;4.30;;;2.00;;
71108;SDS011;59614;51.012;-1.648;2023-07-28T12:12:44;4.13;;;1.77;;
71108;SDS011;59614;51.012;-1.648;2023-07-28T12:18:03;1.88;;;1.70;;
71108;SDS011;59614;51.012;-1.648;2023-07-28T12:20:33;5.18;;;2.00;;
71108;SDS011;59614;51.012;-1.648;2023-07-28T12:23:00;3.38;;;1.90;;
71108;SDS011;59614;51.012;-1.648;2023-07-28T12:25:26;5.47;;;1.90;;
71108;SDS011;59614;51.012;-1.648;2023-07-28T12:27:51;5.22;;;2.10;;
71108;SDS011;59614;51.012;-1.648;2023-07-28T12:30:17;2.85;;;1.73;;
71108;SDS011;59614;51.012;-1.648;2023-07-28T12:32:43;4.03;;;1.90;;
71108;SDS011;59614;51.012;-1.648;2023-07-28T12:35:08;4.30;;;1.88;;
71108;SDS011;59614;51.012;-1.648;2023-07-28T12:37:34;3.03;;;1.70;;
71108;SDS011;59614;51.012;-1.648;2023-07-28T12:39:59;5.68;;;2.10;;
71108;SDS011;59614;51.012;-1.648;2023-07-28T12:42:26;7.70;;;1.60;;
71108;SDS011;59614;51.012;-1.648;2023-07-28T12:44:51;5.43;;;2.15;;
71108;SDS011;59614;51.012;-1.648;2023-07-28T12:47:17;6.28;;;1.85;;
71108;SDS011;59614;51.012;-1.648;2023-07-28T12:49:42;4.00;;;2.00;;
71108;SDS011;59614;51.012;-1.648;2023-07-28T12:52:08;3.80;;;1.80;;
71108;SDS011;59614;51.012;-1.648;2023-07-28T12:54:34;3.55;;;1.80;;
71108;SDS011;59614;51.012;-1.648;2023-07-28T12:56:59;6.57;;;2.08;;
71108;SDS011;59614;51.012;-1.648;2023-07-28T12:59:26;6.43;;;1.90;;
71108;SDS011;59614;51.012;-1.648;2023-07-28T13:01:52;3.22;;;2.10;;
71108;SDS011;59614;51.012;-1.648;2023-07-28T13:04:17;6.57;;;2.20;;
71108;SDS011;59614;51.012;-1.648;2023-07-28T13:06:43;7.22;;;2.42;;
71108;SDS011;59614;51.012;-1.648;2023-07-28T13:09:08;8.82;;;2.10;;
71108;SDS011;59614;51.012;-1.648;2023-07-28T13:11:34;2.78;;;1.88;;
71108;SDS011;59614;51.012;-1.648;2023-07-28T13:14:00;2.05;;;1.60;;
71108;SDS011;59614;51.012;-1.648;2023-07-28T13:16:25;6.47;;;2.35;;
71108;SDS011;59614;51.012;-1.648;2023-07-28T13:18:51;3.95;;;2.00;;
71108;SDS011;59614;51.012;-1.648;2023-07-28T13:21:17;5.93;;;1.95;;
71108;SDS011;59614;51.012;-1.648;2023-07-28T13:23:42;2.65;;;1.80;;
71108;SDS011;59614;51.012;-1.648;2023-07-28T13:26:08;3.22;;;1.80;;
71108;SDS011;59614;51.012;-1.648;2023-07-28T13:28:33;5.10;;;1.95;;
71108;SDS011;59614;51.012;-1.648;2023-07-28T13:31:02;4.10;;;1.80;;
71108;SDS011;59614;51.012;-1.648;2023-07-28T13:33:29;5.22;;;1.70;;
71108;SDS011;59614;51.012;-1.648;2023-07-28T13:35:55;4.63;;;1.92;;
71108;SDS011;59614;51.012;-1.648;2023-07-28T13:38:20;4.53;;;2.20;;
71108;SDS011;59614;51.012;-1.648;2023-07-28T13:40:46;7.18;;;1.80;;
71108;SDS011;59614;51.012;-1.648;2023-07-28T13:43:11;3.88;;;1.95;;
71108;SDS011;59614;51.012;-1.648;2023-07-28T13:45:36;4.55;;;2.00;;
71108;SDS011;59614;51.012;-1.648;2023-07-28T13:48:02;6.30;;;2.15;;
71108;SDS011;59614;51.012;-1.648;2023-07-28T13:50:28;3.72;;;1.92;;
71108;SDS011;59614;51.012;-1.648;2023-07-28T13:52:53;4.47;;;2.03;;
71108;SDS011;59614;51.012;-1.648;2023-07-28T13:55:19;6.40;;;2.20;;
71108;SDS011;59614;51.012;-1.648;2023-07-28T13:57:44;3.63;;;2.20;;
71108;SDS011;59614;51.012;-1.648;2023-07-28T14:00:10;4.28;;;2.20;;
71108;SDS011;59614;51.012;-1.648;2023-07-28T14:02:36;6.75;;;2.28;;
71108;SDS011;59614;51.012;-1.648;2023-07-28T14:05:02;4.05;;;2.10;;
71108;SDS011;59614;51.012;-1.648;2023-07-28T14:07:28;5.25;;;2.10;;
71108;SDS011;59614;51.012;-1.648;2023-07-28T14:09:54;3.70;;;2.10;;
71108;SDS011;59614;51.012;-1.648;2023-07-28T14:12:19;4.95;;;2.00;;
71108;SDS011;59614;51.012;-1.648;2023-07-28T14:14:44;3.97;;;2.20;;
71108;SDS011;59614;51.012;-1.648;2023-07-28T14:17:10;4.15;;;2.00;;
71108;SDS011;59614;51.012;-1.648;2023-07-28T14:19:37;5.45;;;2.10;;
71108;SDS011;59614;51.012;-1.648;2023-07-28T14:22:03;5.63;;;2.22;;
71108;SDS011;59614;51.012;-1.648;2023-07-28T14:24:29;5.75;;;2.33;;
71108;SDS011;59614;51.012;-1.648;2023-07-28T14:26:54;2.95;;;2.03;;
71108;SDS011;59614;51.012;-1.648;2023-07-28T14:29:20;9.73;;;2.33;;
71108;SDS011;59614;51.012;-1.648;2023-07-28T14:31:46;3.53;;;2.00;;
71108;SDS011;59614;51.012;-1.648;2023-07-28T14:34:11;6.70;;;2.10;;
71108;SDS011;59614;51.012;-1.648;2023-07-28T14:36:37;5.68;;;2.50;;
71108;SDS011;59614;51.012;-1.648;2023-07-28T14:39:03;2.92;;;2.00;;
71108;SDS011;59614;51.012;-1.648;2023-07-28T14:41:29;4.97;;;2.25;;
71108;SDS011;59614;51.012;-1.648;2023-07-28T14:43:54;6.43;;;2.00;;
71108;SDS011;59614;51.012;-1.648;2023-07-28T14:46:19;6.97;;;2.25;;
71108;SDS011;59614;51.012;-1.648;2023-07-28T14:48:47;6.43;;;2.03;;
71108;SDS011;59614;51.012;-1.648;2023-07-28T14:51:14;12.20;;;2.13;;